createdAt,value
2022-10-13T00:01:54.006Z,101499.81
2022-10-13T00:04:39.364Z,101503.19
2022-10-13T00:07:24.530Z,101491.63
2022-10-13T00:10:09.989Z,101495.09
2022-10-13T00:12:55.121Z,101495.19
2022-10-13T00:15:42.373Z,101489.16
2022-10-13T00:18:27.590Z,101492.75
2022-10-13T00:21:15.910Z,101477.91
2022-10-13T00:24:01.057Z,101488.56
2022-10-13T00:26:45.990Z,101477.50
2022-10-13T00:29:30.918Z,101482.00
2022-10-13T00:32:16.495Z,101477.09
2022-10-13T00:35:01.939Z,101468.53
2022-10-13T00:37:47.068Z,101484.66
2022-10-13T00:40:32.042Z,101477.94
2022-10-13T00:43:24.259Z,101486.03
2022-10-13T00:46:09.311Z,101486.75
2022-10-13T00:48:56.792Z,101485.06
2022-10-13T00:51:46.894Z,101480.66
2022-10-13T00:54:32.069Z,101482.03
2022-10-13T00:57:20.478Z,101477.28
2022-10-13T01:00:06.998Z,101494.34
2022-10-13T01:02:52.025Z,101496.13
2022-10-13T01:05:39.314Z,101482.09
2022-10-13T01:08:27.061Z,101499.72
2022-10-13T01:11:15.535Z,101459.13
2022-10-13T01:14:21.394Z,101492.66
2022-10-13T01:17:09.619Z,101483.59
2022-10-13T01:20:06.740Z,101459.28
2022-10-13T01:22:54.638Z,101472.56
2022-10-13T01:26:18.283Z,101470.03
2022-10-13T01:29:20.930Z,101460.31
2022-10-13T01:32:34.939Z,101432.31
2022-10-13T01:35:54.803Z,101449.38
2022-10-13T01:38:53.108Z,101435.97
2022-10-13T01:41:41.322Z,101444.63
2022-10-13T01:44:32.619Z,101439.16
2022-10-13T01:47:19.122Z,101446.09
2022-10-13T01:50:06.701Z,101441.78
2022-10-13T01:52:52.830Z,101445.38
2022-10-13T01:55:47.952Z,101433.88
2022-10-13T01:58:36.127Z,101411.56
2022-10-13T02:01:24.362Z,101437.25
2022-10-13T02:04:35.930Z,101418.75
2022-10-13T02:07:28.055Z,101425.25
2022-10-13T02:10:20.393Z,101428.63
2022-10-13T02:13:08.615Z,101432.81
2022-10-13T02:15:57.773Z,101423.13
2022-10-13T02:18:44.173Z,101413.66
2022-10-13T02:21:29.140Z,101405.88
2022-10-13T02:24:14.828Z,101424.31
2022-10-13T02:27:00.087Z,101420.31
2022-10-13T02:29:50.292Z,101419.66
2022-10-13T02:32:35.651Z,101409.97
2022-10-13T02:35:21.075Z,101388.53
2022-10-13T02:38:06.578Z,101408.00
2022-10-13T02:40:51.844Z,101409.88
2022-10-13T02:43:38.658Z,101415.88
2022-10-13T02:46:23.831Z,101411.56
2022-10-13T02:49:10.303Z,101414.63
2022-10-13T02:51:55.366Z,101386.72
2022-10-13T02:54:40.204Z,101399.13
2022-10-13T02:57:25.241Z,101390.09
2022-10-13T03:00:11.009Z,101382.28
2022-10-13T03:02:56.402Z,101388.19
2022-10-13T03:05:41.503Z,101397.66
2022-10-13T03:08:27.133Z,101395.38
2022-10-13T03:11:11.972Z,101404.19
2022-10-13T03:13:57.326Z,101405.16
2022-10-13T03:16:42.255Z,101405.25
2022-10-13T03:19:27.217Z,101421.16
2022-10-13T03:22:15.289Z,101415.78
2022-10-13T03:25:00.857Z,101408.09
2022-10-13T03:27:46.065Z,101406.19
2022-10-13T03:30:30.957Z,101402.72
2022-10-13T03:33:16.209Z,101401.91
2022-10-13T03:36:02.393Z,101373.16
2022-10-13T03:38:47.371Z,101413.34
2022-10-13T03:41:32.557Z,101409.88
2022-10-13T03:44:17.774Z,101391.69
2022-10-13T03:47:03.099Z,101338.00
2022-10-13T03:49:47.966Z,101368.84
2022-10-13T03:52:33.222Z,101386.09
2022-10-13T03:55:18.259Z,101402.19
2022-10-13T03:58:03.553Z,101390.00
2022-10-13T04:00:49.174Z,101346.84
2022-10-13T04:03:34.750Z,101375.16
2022-10-13T04:06:20.191Z,101369.06
2022-10-13T04:09:05.649Z,101372.63
2022-10-13T04:11:51.619Z,101364.00
2022-10-13T04:14:36.665Z,101365.69
2022-10-13T04:17:21.594Z,101358.75
2022-10-13T04:20:07.372Z,101349.28
2022-10-13T04:22:52.280Z,101359.69
2022-10-13T04:25:39.131Z,101376.63
2022-10-13T04:28:24.773Z,101360.63
2022-10-13T04:31:10.067Z,101367.59
2022-10-13T04:33:55.466Z,101368.22
2022-10-13T04:36:40.730Z,101343.59
2022-10-13T04:39:25.579Z,101346.31
2022-10-13T04:42:10.843Z,101323.63
2022-10-13T04:44:55.672Z,101337.69
2022-10-13T04:47:40.800Z,101344.84
2022-10-13T04:50:25.952Z,101322.88
2022-10-13T04:53:14.253Z,101335.28
2022-10-13T04:56:08.320Z,101336.94
2022-10-13T04:58:53.601Z,101335.28
2022-10-13T05:01:38.948Z,101321.50
2022-10-13T05:04:24.272Z,101288.59
2022-10-13T05:07:18.362Z,101304.25
2022-10-13T05:10:05.383Z,101295.81
2022-10-13T05:12:51.592Z,101303.28
2022-10-13T05:15:39.388Z,101309.19
2022-10-13T05:18:25.170Z,101297.72
2022-10-13T05:21:14.946Z,101294.38
2022-10-13T05:24:02.289Z,101311.19
2022-10-13T05:26:47.333Z,101315.59
2022-10-13T05:29:32.518Z,101312.03
2022-10-13T05:32:17.875Z,101300.66
2022-10-13T05:35:03.372Z,101291.31
2022-10-13T05:37:48.495Z,101296.56
2022-10-13T05:40:33.567Z,101295.81
2022-10-13T05:43:18.597Z,101292.47
2022-10-13T05:46:04.342Z,101290.78
2022-10-13T05:48:49.810Z,101272.91
2022-10-13T05:51:53.635Z,101299.41
2022-10-13T05:54:52.828Z,101297.63
2022-10-13T05:57:42.061Z,101300.25
2022-10-13T06:00:28.733Z,101303.19
2022-10-13T06:03:17.557Z,101305.59
2022-10-13T06:06:03.066Z,101312.66
2022-10-13T06:08:49.560Z,101310.16
2022-10-13T06:11:34.538Z,101326.09
2022-10-13T06:14:19.796Z,101322.56
2022-10-13T06:17:05.069Z,101304.75
2022-10-13T06:19:50.462Z,101323.38
2022-10-13T06:22:36.761Z,101320.13
2022-10-13T06:25:21.837Z,101320.13
2022-10-13T06:28:07.186Z,101320.97
2022-10-13T06:30:56.905Z,101302.66
2022-10-13T06:33:41.936Z,101316.66
2022-10-13T06:36:27.662Z,101327.47
2022-10-13T06:39:12.929Z,101334.41
2022-10-13T06:41:58.046Z,101316.44
2022-10-13T06:44:43.258Z,101333.50
2022-10-13T06:47:28.291Z,101329.91
2022-10-13T06:50:13.662Z,101341.03
2022-10-13T06:52:59.215Z,101331.28
2022-10-13T06:55:47.041Z,101334.53
2022-10-13T06:58:35.646Z,101336.22
2022-10-13T07:01:20.652Z,101303.50
2022-10-13T07:04:06.496Z,101339.78
2022-10-13T07:06:51.724Z,101334.53
2022-10-13T07:09:36.703Z,101332.03
2022-10-13T07:12:22.417Z,101332.03
2022-10-13T07:15:08.380Z,101309.84
2022-10-13T07:17:54.896Z,101323.16
2022-10-13T07:20:39.833Z,101315.19
2022-10-13T07:23:26.315Z,101315.06
2022-10-13T07:26:14.674Z,101311.38
2022-10-13T07:29:00.555Z,101304.47
2022-10-13T07:31:46.398Z,101307.50
2022-10-13T07:34:31.543Z,101278.38
2022-10-13T07:37:16.829Z,101302.88
2022-10-13T07:40:02.830Z,101297.09
2022-10-13T07:42:48.093Z,101297.94
2022-10-13T07:45:33.331Z,101277.53
2022-10-13T07:48:18.432Z,101289.22
2022-10-13T07:51:09.565Z,101302.97
2022-10-13T07:53:54.608Z,101295.00
2022-10-13T07:56:39.473Z,101285.84
2022-10-13T07:59:24.448Z,101312.88
2022-10-13T08:02:10.355Z,101308.22
2022-10-13T08:04:55.263Z,101291.31
2022-10-13T08:07:40.328Z,101312.84
2022-10-13T08:10:26.415Z,101320.34
2022-10-13T08:13:11.650Z,101310.94
2022-10-13T08:16:00.320Z,101315.38
2022-10-13T08:18:46.013Z,101322.00
2022-10-13T08:24:36.405Z,101314.78
2022-10-13T08:27:37.027Z,101307.56
2022-10-13T08:30:31.097Z,101321.00
2022-10-13T08:33:16.363Z,101293.56
2022-10-13T08:36:01.527Z,101316.13
2022-10-13T08:38:47.163Z,101311.00
2022-10-13T08:41:37.778Z,101310.88
2022-10-13T08:45:21.770Z,101319.28
2022-10-13T08:47:47.004Z,101305.19
2022-10-13T08:50:35.963Z,101303.25
2022-10-13T08:53:34.225Z,101278.75
2022-10-13T08:56:24.552Z,101296.31
2022-10-13T08:59:14.783Z,101306.53
2022-10-13T09:02:00.163Z,101271.72
2022-10-13T09:04:49.305Z,101305.00
2022-10-13T09:07:37.143Z,101301.91
2022-10-13T09:10:22.260Z,101289.38
2022-10-13T09:13:09.197Z,101301.94
2022-10-13T09:15:56.313Z,101278.47
2022-10-13T09:18:41.775Z,101283.69
2022-10-13T09:21:26.875Z,101282.84
2022-10-13T09:24:16.628Z,101279.00
2022-10-13T09:27:12.025Z,101274.72
2022-10-13T09:29:56.955Z,101277.44
2022-10-13T09:32:41.822Z,101266.88
2022-10-13T09:35:26.939Z,101272.16
2022-10-13T09:38:22.280Z,101255.13
2022-10-13T09:41:10.268Z,101278.84
2022-10-13T09:43:55.043Z,101276.22
2022-10-13T09:46:53.741Z,101253.22
2022-10-13T09:49:41.409Z,101283.22
2022-10-13T09:52:27.761Z,101289.06
2022-10-13T09:55:32.908Z,101290.88
2022-10-13T09:58:34.086Z,101265.00
2022-10-13T10:01:26.279Z,101262.84
2022-10-13T10:04:16.223Z,101283.50
2022-10-13T10:07:09.658Z,101292.34
2022-10-13T10:09:58.169Z,101296.34
2022-10-13T10:12:44.287Z,101283.25
2022-10-13T10:15:49.737Z,101288.53
2022-10-13T10:18:58.949Z,101278.22
2022-10-13T10:22:04.216Z,101284.22
2022-10-13T10:25:02.864Z,101285.91
2022-10-13T10:28:24.135Z,101289.25
2022-10-13T10:31:21.209Z,101293.69
2022-10-13T10:34:32.230Z,101298.97
2022-10-13T10:37:21.383Z,101299.47
2022-10-13T10:40:31.205Z,101299.47
2022-10-13T10:43:48.842Z,101313.63
2022-10-13T10:46:42.336Z,101306.28
2022-10-13T10:49:32.469Z,101317.22
2022-10-13T10:52:26.715Z,101314.34
2022-10-13T10:55:34.760Z,101316.47
2022-10-13T10:58:38.600Z,101328.25
2022-10-13T11:01:34.640Z,101305.09
2022-10-13T11:04:33.073Z,101325.59
2022-10-13T11:07:24.358Z,101325.69
2022-10-13T11:10:18.322Z,101322.31
2022-10-13T11:13:16.825Z,101319.63
2022-10-13T11:16:31.181Z,101316.72
2022-10-13T11:19:31.999Z,101312.31
2022-10-13T11:22:20.667Z,101315.91
2022-10-13T11:25:43.691Z,101312.91
2022-10-13T11:28:41.083Z,101307.84
2022-10-13T11:31:48.114Z,101301.84
2022-10-13T11:34:34.221Z,101281.91
2022-10-13T11:37:19.298Z,101276.06
2022-10-13T11:40:28.704Z,101290.09
2022-10-13T11:43:13.907Z,101289.41
2022-10-13T11:46:14.254Z,101294.84
2022-10-13T11:49:14.784Z,101294.00
2022-10-13T11:52:19.805Z,101278.88
2022-10-13T11:55:17.358Z,101278.63
2022-10-13T11:58:32.325Z,101276.13
2022-10-13T12:01:19.068Z,101268.34
2022-10-13T12:04:14.392Z,101263.56
2022-10-13T12:07:05.867Z,101271.03
2022-10-13T12:09:54.286Z,101254.47
2022-10-13T12:12:47.348Z,101261.41
2022-10-13T12:15:35.875Z,101262.19
2022-10-13T12:18:35.762Z,101267.13
2022-10-13T12:21:23.088Z,101262.31
2022-10-13T12:24:09.610Z,101248.00
2022-10-13T12:26:55.624Z,101254.34
2022-10-13T12:29:41.468Z,101252.88
2022-10-13T12:32:32.062Z,101236.56
2022-10-13T12:35:20.231Z,101243.78
2022-10-13T12:38:19.143Z,101227.03
2022-10-13T12:41:04.341Z,101241.06
2022-10-13T12:43:50.478Z,101243.69
2022-10-13T12:46:59.176Z,101241.78
2022-10-13T12:49:44.729Z,101244.28
2022-10-13T12:52:30.386Z,101241.97
2022-10-13T12:55:19.205Z,101245.47
2022-10-13T12:58:04.555Z,101232.38
2022-10-13T13:01:14.161Z,101241.34
2022-10-13T13:04:02.403Z,101238.25
2022-10-13T13:07:00.969Z,101246.28
2022-10-13T13:10:00.164Z,101241.59
2022-10-13T13:12:47.301Z,101235.31
2022-10-13T13:15:34.609Z,101234.88
2022-10-13T13:18:39.706Z,101233.91
2022-10-13T13:21:24.846Z,101217.13
2022-10-13T13:24:21.789Z,101206.47
2022-10-13T13:27:17.761Z,101215.94
2022-10-13T13:30:02.981Z,101217.63
2022-10-13T13:32:48.451Z,101212.59
2022-10-13T13:35:33.777Z,101207.22
2022-10-13T13:38:19.444Z,101209.19
2022-10-13T13:41:04.854Z,101213.94
2022-10-13T13:43:50.156Z,101214.44
2022-10-13T13:46:35.133Z,101207.06
2022-10-13T13:49:20.393Z,101197.84
2022-10-13T13:52:05.282Z,101203.16
2022-10-13T13:54:51.185Z,101187.38
2022-10-13T13:57:36.620Z,101174.53
2022-10-13T14:00:22.638Z,101184.63
2022-10-13T14:03:07.774Z,101198.59
2022-10-13T14:05:52.930Z,101181.22
2022-10-13T14:08:42.247Z,101181.88
2022-10-13T14:11:27.829Z,101173.81
2022-10-13T14:14:13.033Z,101177.47
2022-10-13T14:16:59.918Z,101178.59
2022-10-13T14:19:45.107Z,101168.16
2022-10-13T14:22:30.083Z,101161.72
2022-10-13T14:25:15.210Z,101158.53
2022-10-13T14:28:00.348Z,101154.34
2022-10-13T14:30:45.350Z,101160.06
2022-10-13T14:33:30.646Z,101166.75
2022-10-13T14:36:15.685Z,101163.13
2022-10-13T14:39:01.299Z,101168.28
2022-10-13T14:41:46.685Z,101159.94
2022-10-13T14:44:32.052Z,101152.09
2022-10-13T14:47:17.001Z,101142.78
2022-10-13T14:50:02.820Z,101141.53
2022-10-13T14:52:48.028Z,101130.25
2022-10-13T14:55:33.152Z,101156.31
2022-10-13T14:58:18.210Z,101136.78
2022-10-13T15:01:03.665Z,101125.59
2022-10-13T15:03:49.040Z,101122.28
2022-10-13T15:06:34.159Z,101122.28
2022-10-13T15:09:21.053Z,101131.69
2022-10-13T15:12:10.823Z,101128.97
2022-10-13T15:14:55.793Z,101134.00
2022-10-13T15:17:40.602Z,101108.06
2022-10-13T15:20:25.679Z,101134.00
2022-10-13T15:23:10.898Z,101136.66
2022-10-13T15:25:58.265Z,101125.75
2022-10-13T15:28:45.797Z,101124.09
2022-10-13T15:31:31.016Z,101124.31
2022-10-13T15:34:16.243Z,101128.88
2022-10-13T15:37:01.298Z,101117.28
2022-10-13T15:39:46.261Z,101141.34
2022-10-13T15:42:31.245Z,101107.25
2022-10-13T15:45:16.277Z,101148.03
2022-10-13T15:48:02.597Z,101146.75
2022-10-13T15:50:47.679Z,101143.34
2022-10-13T15:53:32.820Z,101126.47
2022-10-13T15:56:18.108Z,101142.34
2022-10-13T15:59:04.048Z,101139.41
2022-10-13T16:01:49.355Z,101136.97
2022-10-13T16:04:37.504Z,101121.31
2022-10-13T16:07:22.842Z,101145.34
2022-10-13T16:10:09.950Z,101139.13
2022-10-13T16:12:55.048Z,101140.94
2022-10-13T16:15:40.513Z,101139.25
2022-10-13T16:18:33.815Z,101130.81
2022-10-13T16:21:25.871Z,101152.97
2022-10-13T16:24:11.046Z,101133.47
2022-10-13T16:26:56.164Z,101139.13
2022-10-13T16:29:41.403Z,101154.25
2022-10-13T16:32:26.413Z,101145.94
2022-10-13T16:35:11.892Z,101161.69
2022-10-13T16:37:57.019Z,101152.22
2022-10-13T16:40:42.054Z,101145.94
2022-10-13T16:43:27.101Z,101153.88
2022-10-13T16:46:14.027Z,101154.13
2022-10-13T16:48:59.283Z,101150.47
2022-10-13T16:51:44.211Z,101164.97
2022-10-13T16:54:29.822Z,101157.41
2022-10-13T16:57:14.886Z,101134.78
2022-10-13T17:00:00.171Z,101165.84
2022-10-13T17:02:45.533Z,101162.72
2022-10-13T17:05:30.878Z,101149.44
2022-10-13T17:08:16.109Z,101163.94
2022-10-13T17:11:01.253Z,101150.78
2022-10-13T17:13:46.614Z,101145.97
2022-10-13T17:16:32.728Z,101159.41
2022-10-13T17:19:17.858Z,101157.28
2022-10-13T17:22:02.895Z,101151.66
2022-10-13T17:24:48.472Z,101160.41
2022-10-13T17:27:37.240Z,101165.81
2022-10-13T17:30:22.564Z,101159.00
2022-10-13T17:33:08.739Z,101166.19
2022-10-13T17:35:59.339Z,101177.97
2022-10-13T17:38:45.826Z,101179.41
2022-10-13T17:41:31.245Z,101171.28
2022-10-13T17:44:20.412Z,101177.63
2022-10-13T17:47:05.613Z,101181.81
2022-10-13T17:49:50.790Z,101171.75
2022-10-13T17:52:36.051Z,101168.88
2022-10-13T17:55:21.089Z,101193.31
2022-10-13T17:58:06.210Z,101194.19
2022-10-13T18:01:11.793Z,101196.19
2022-10-13T18:03:59.017Z,101185.66
2022-10-13T18:06:45.032Z,101192.72
2022-10-13T18:09:30.197Z,101198.59
2022-10-13T18:12:15.662Z,101209.88
2022-10-13T18:15:00.841Z,101217.06
2022-10-13T18:17:46.242Z,101223.06
2022-10-13T18:20:31.586Z,101189.00
2022-10-13T18:23:16.604Z,101208.44
2022-10-13T18:26:18.878Z,101212.78
2022-10-13T18:29:06.090Z,101214.44
2022-10-13T18:31:50.931Z,101209.03
2022-10-13T18:34:36.206Z,101208.53
2022-10-13T18:37:22.009Z,101204.81
2022-10-13T18:40:07.951Z,101203.88
2022-10-13T18:42:54.916Z,101190.78
2022-10-13T18:45:40.210Z,101209.47
2022-10-13T18:48:25.269Z,101192.69
2022-10-13T18:51:15.897Z,101205.63
2022-10-13T18:54:01.472Z,101205.53
2022-10-13T18:56:46.509Z,101198.44
2022-10-13T18:59:31.654Z,101205.53
2022-10-13T19:02:16.993Z,101206.13
2022-10-13T19:05:02.201Z,101209.47
2022-10-13T19:07:47.311Z,101206.59
2022-10-13T19:10:32.436Z,101196.06
2022-10-13T19:13:18.390Z,101181.41
2022-10-13T19:16:03.883Z,101171.13
2022-10-13T19:18:50.175Z,101161.41
2022-10-13T19:21:37.084Z,101178.53
2022-10-13T19:24:22.281Z,101180.81
2022-10-13T19:27:07.242Z,101172.53
2022-10-13T19:29:52.591Z,101168.69
2022-10-13T19:32:41.010Z,101160.16
2022-10-13T19:35:26.690Z,101158.34
2022-10-13T19:38:12.953Z,101165.44
2022-10-13T19:41:02.633Z,101162.31
2022-10-13T19:43:48.329Z,101155.72
2022-10-13T19:46:35.338Z,101162.78
2022-10-13T19:49:21.905Z,101164.44
2022-10-13T19:52:06.927Z,101154.88
2022-10-13T19:54:51.973Z,101153.41
2022-10-13T19:57:37.069Z,101154.34
2022-10-13T20:00:22.079Z,101171.38
2022-10-13T20:03:06.984Z,101172.50
2022-10-13T20:05:52.150Z,101162.91
2022-10-13T20:08:37.345Z,101169.88
2022-10-13T20:11:24.024Z,101169.91
2022-10-13T20:14:09.606Z,101158.50
2022-10-13T20:16:56.818Z,101164.09
2022-10-13T20:19:43.282Z,101171.22
2022-10-13T20:22:28.524Z,101160.94
2022-10-13T20:25:15.113Z,101168.56
2022-10-13T20:28:00.410Z,101162.69
2022-10-13T20:30:45.339Z,101172.94
2022-10-13T20:33:31.252Z,101168.41
2022-10-13T20:36:17.812Z,101171.72
2022-10-13T20:39:03.877Z,101171.41
2022-10-13T20:41:49.117Z,101158.19
2022-10-13T20:44:34.173Z,101166.69
2022-10-13T20:47:19.704Z,101143.19
2022-10-13T20:50:08.394Z,101159.75
2022-10-13T20:52:53.329Z,101154.00
2022-10-13T20:55:41.890Z,101125.19
2022-10-13T20:58:32.192Z,101153.25
2022-10-13T21:01:19.265Z,101140.00
2022-10-13T21:04:05.212Z,101132.88
2022-10-13T21:06:52.411Z,101147.25
2022-10-13T21:09:37.766Z,101142.00
2022-10-13T21:12:22.929Z,101124.47
2022-10-13T21:15:08.706Z,101145.81
2022-10-13T21:17:54.443Z,101156.00
2022-10-13T21:20:43.599Z,101149.19
2022-10-13T21:23:28.466Z,101150.97
2022-10-13T21:26:16.352Z,101140.25
2022-10-13T21:29:05.917Z,101169.78
2022-10-13T21:31:50.882Z,101173.44
2022-10-13T21:34:35.871Z,101176.72
2022-10-13T21:37:21.395Z,101176.94
2022-10-13T21:40:07.775Z,101175.56
2022-10-13T21:42:53.209Z,101182.28
2022-10-13T21:45:38.498Z,101174.19
2022-10-13T21:48:23.675Z,101171.78
2022-10-13T21:51:18.529Z,101173.47
2022-10-13T21:54:07.840Z,101183.63
2022-10-13T21:56:52.777Z,101138.69
2022-10-13T21:59:38.228Z,101172.75
2022-10-13T22:02:23.351Z,101176.72
2022-10-13T22:05:08.936Z,101181.44
2022-10-13T22:07:53.831Z,101186.34
2022-10-13T22:10:38.868Z,101184.56
2022-10-13T22:13:23.893Z,101173.09
2022-10-13T22:16:18.635Z,101176.28
2022-10-13T22:19:03.777Z,101187.53
2022-10-13T22:21:50.212Z,101177.03
2022-10-13T22:24:35.463Z,101164.88
2022-10-13T22:27:20.592Z,101172.63
2022-10-13T22:30:06.999Z,101158.69
2022-10-13T22:32:51.829Z,101140.25
2022-10-13T22:35:36.923Z,101163.09
2022-10-13T22:38:22.127Z,101154.59
2022-10-13T22:41:08.264Z,101154.59
2022-10-13T22:43:55.745Z,101143.75
2022-10-13T22:46:41.415Z,101139.88
2022-10-13T22:49:26.414Z,101151.22
2022-10-13T22:52:11.747Z,101150.59
2022-10-13T22:54:56.605Z,101149.13
2022-10-13T22:57:41.614Z,101151.13
2022-10-13T23:00:26.498Z,101154.78
2022-10-13T23:03:13.853Z,101147.44
2022-10-13T23:05:59.022Z,101149.88
2022-10-13T23:08:44.215Z,101136.22
2022-10-13T23:11:29.479Z,101141.69
2022-10-13T23:14:14.450Z,101130.72
2022-10-13T23:16:59.383Z,101137.13
2022-10-13T23:19:44.374Z,101118.31
2022-10-13T23:22:29.346Z,101136.09
2022-10-13T23:25:14.242Z,101137.00
2022-10-13T23:27:59.522Z,101145.00
2022-10-13T23:30:44.528Z,101136.59
2022-10-13T23:33:30.145Z,101137.81
2022-10-13T23:36:19.232Z,101138.00
2022-10-13T23:39:06.314Z,101120.44
2022-10-13T23:41:51.635Z,101129.41
2022-10-13T23:44:36.775Z,101109.56
2022-10-13T23:47:22.038Z,101122.16
2022-10-13T23:50:07.337Z,101110.50
2022-10-13T23:52:52.612Z,101103.97
2022-10-13T23:55:39.334Z,101121.91
2022-10-13T23:58:24.610Z,101124.19
